Time;durP1;ratioP1;P1;durP2;ratioP2;P2;SDS_P1;SDS_P2;PMS_P1;PMS_P2;Temp;Humidity;BMP_temperature;BMP_pressure;BME280_temperature;BME280_humidity;BME280_pressure;Samples;Min_cycle;Max_cycle;Signal;HPM_P1;HPM_P2
2020/12/04 00:01:59;;;;;;;17.23;10.17;;;;;;;;;;5117241;28;20399;-66
2020/12/04 00:04:25;;;;;;;23.97;12.10;;;;;;;;;;5114231;28;20485;-66
2020/12/04 00:06:51;;;;;;;15.23;9.73;;;;;;;;;;5116605;28;20417;-66
2020/12/04 00:09:17;;;;;;;22.40;9.97;;;;;;;;;;5115420;28;20814;-66
2020/12/04 00:11:43;;;;;;;20.03;9.77;;;;;;;;;;5107731;22;20487;-82
2020/12/04 00:14:09;;;;;;;20.97;11.20;;;;;;;;;;5096842;28;20428;-83
2020/12/04 00:16:35;;;;;;;19.00;9.37;;;;;;;;;;5096684;28;20438;-82
2020/12/04 00:19:01;;;;;;;16.20;10.00;;;;;;;;;;5095679;28;20436;-82
2020/12/04 00:21:27;;;;;;;20.40;11.60;;;;;;;;;;5078349;28;20407;-82
2020/12/04 00:23:53;;;;;;;16.87;11.13;;;;;;;;;;5095940;28;20838;-82
2020/12/04 00:26:19;;;;;;;17.07;10.23;;;;;;;;;;5096838;28;20416;-83
2020/12/04 00:28:45;;;;;;;21.63;11.40;;;;;;;;;;5077736;28;20454;-82
2020/12/04 00:31:11;;;;;;;19.87;10.60;;;;;;;;;;5095442;28;20891;-82
2020/12/04 00:33:37;;;;;;;20.73;11.70;;;;;;;;;;5095547;28;20428;-82
2020/12/04 00:36:03;;;;;;;23.10;10.57;;;;;;;;;;5096799;28;20400;-82
2020/12/04 00:38:29;;;;;;;20.83;10.13;;;;;;;;;;5094573;28;20927;-82
2020/12/04 00:40:55;;;;;;;18.53;8.53;;;;;;;;;;5100425;28;20400;-80
2020/12/04 00:43:21;;;;;;;22.60;10.30;;;;;;;;;;5114631;28;20523;-82
2020/12/04 00:45:47;;;;;;;15.77;8.40;;;;;;;;;;5099809;28;20447;-82
2020/12/04 00:48:13;;;;;;;22.03;9.37;;;;;;;;;;5077822;28;20477;-82
2020/12/04 00:50:39;;;;;;;18.23;10.67;;;;;;;;;;5093478;28;20866;-82
2020/12/04 00:53:07;;;;;;;24.13;9.47;;;;;;;;;;5095834;28;20428;-82
2020/12/04 00:55:34;;;;;;;20.77;9.73;;;;;;;;;;5096592;28;20453;-82
2020/12/04 00:58:00;;;;;;;22.40;9.57;;;;;;;;;;5094014;28;20451;-82
2020/12/04 01:00:26;;;;;;;20.10;10.17;;;;;;;;;;5096225;28;20414;-82
2020/12/04 01:02:52;;;;;;;20.30;9.37;;;;;;;;;;5077610;28;20447;-82
2020/12/04 01:05:18;;;;;;;21.50;10.50;;;;;;;;;;5096178;28;20404;-81
2020/12/04 01:07:44;;;;;;;19.27;9.70;;;;;;;;;;5095063;28;20413;-81
2020/12/04 01:10:10;;;;;;;19.80;8.50;;;;;;;;;;5095984;28;20439;-82
2020/12/04 01:12:36;;;;;;;18.73;9.30;;;;;;;;;;5077232;28;20400;-81
2020/12/04 01:15:03;;;;;;;17.20;9.53;;;;;;;;;;5095133;28;20469;-82
2020/12/04 01:17:29;;;;;;;20.93;11.03;;;;;;;;;;5096322;28;20835;-82
2020/12/04 01:19:55;;;;;;;32.73;11.80;;;;;;;;;;5076434;28;20507;-81
2020/12/04 01:22:21;;;;;;;21.97;9.83;;;;;;;;;;5077329;28;20408;-82
2020/12/04 01:24:47;;;;;;;19.77;10.63;;;;;;;;;;5094306;28;20500;-82
2020/12/04 01:27:13;;;;;;;14.20;7.90;;;;;;;;;;5095642;28;20416;-82
2020/12/04 01:29:39;;;;;;;17.30;9.60;;;;;;;;;;5094361;28;20466;-82
2020/12/04 01:32:05;;;;;;;21.23;9.57;;;;;;;;;;5095893;28;20404;-82
2020/12/04 01:34:31;;;;;;;21.30;9.43;;;;;;;;;;5093983;28;20776;-82
2020/12/04 01:36:57;;;;;;;17.93;9.63;;;;;;;;;;5076190;28;20432;-82
2020/12/04 01:39:23;;;;;;;17.97;9.03;;;;;;;;;;5094955;28;20496;-82
2020/12/04 01:41:49;;;;;;;18.40;11.17;;;;;;;;;;5096009;28;20412;-82
2020/12/04 01:44:15;;;;;;;23.63;11.80;;;;;;;;;;5094574;28;20894;-82
2020/12/04 01:46:41;;;;;;;23.23;8.80;;;;;;;;;;5076815;28;20404;-81
2020/12/04 01:49:07;;;;;;;23.60;12.90;;;;;;;;;;5074571;28;20468;-80
2020/12/04 01:51:33;;;;;;;19.60;11.03;;;;;;;;;;5090800;28;20458;-80
2020/12/04 01:53:59;;;;;;;20.70;10.03;;;;;;;;;;5092258;28;20442;-80
2020/12/04 01:56:25;;;;;;;19.57;10.50;;;;;;;;;;5093265;28;20408;-80
2020/12/04 01:58:51;;;;;;;23.57;9.20;;;;;;;;;;5092848;28;20843;-81
2020/12/04 02:01:17;;;;;;;13.17;7.23;;;;;;;;;;5075126;28;20407;-80
2020/12/04 02:03:44;;;;;;;20.53;9.57;;;;;;;;;;5091819;28;20894;-81
2020/12/04 02:06:31;;;;;;;25.40;10.70;;;;;;;;;;5075195;28;20412;-80
2020/12/04 02:09:02;;;;;;;15.10;9.50;;;;;;;;;;5075655;28;20534;-80
2020/12/04 02:11:29;;;;;;;18.03;9.30;;;;;;;;;;5078712;28;20424;-81
2020/12/04 02:13:56;;;;;;;14.53;9.40;;;;;;;;;;5095391;28;20435;-80
2020/12/04 02:16:23;;;;;;;27.43;9.83;;;;;;;;;;5097060;28;20408;-81
2020/12/04 02:18:49;;;;;;;28.80;8.53;;;;;;;;;;5077581;28;20447;-80
2020/12/04 02:21:15;;;;;;;19.57;9.20;;;;;;;;;;5079005;28;20407;-81
2020/12/04 02:23:44;;;;;;;28.13;10.20;;;;;;;;;;5088291;28;20471;-81
2020/12/04 02:26:11;;;;;;;25.00;10.30;;;;;;;;;;5098937;28;20499;-81
2020/12/04 02:28:37;;;;;;;19.97;8.40;;;;;;;;;;5080491;28;20446;-80
2020/12/04 02:31:05;;;;;;;19.20;9.07;;;;;;;;;;5100029;28;20412;-82
2020/12/04 02:33:31;;;;;;;17.90;10.20;;;;;;;;;;5099918;28;20419;-82
2020/12/04 02:35:57;;;;;;;22.13;11.40;;;;;;;;;;5080919;28;20455;-82
2020/12/04 02:38:24;;;;;;;23.73;9.80;;;;;;;;;;5080798;28;20439;-82
2020/12/04 02:40:50;;;;;;;17.87;9.17;;;;;;;;;;5098184;28;20431;-82
2020/12/04 02:43:17;;;;;;;21.57;10.27;;;;;;;;;;5098770;28;20787;-82
2020/12/04 02:45:43;;;;;;;20.10;10.33;;;;;;;;;;5097394;28;20523;-82
2020/12/04 02:48:09;;;;;;;22.97;11.57;;;;;;;;;;5097469;28;20448;-82
2020/12/04 02:50:35;;;;;;;22.87;9.70;;;;;;;;;;5097264;28;20431;-82
2020/12/04 02:53:01;;;;;;;19.50;8.53;;;;;;;;;;5095123;28;20900;-81
2020/12/04 02:55:27;;;;;;;20.90;9.87;;;;;;;;;;5095610;28;20489;-82
2020/12/04 02:57:53;;;;;;;19.00;8.70;;;;;;;;;;5098758;28;20392;-82
2020/12/04 03:00:19;;;;;;;16.53;9.30;;;;;;;;;;5097195;22;20488;-65
2020/12/04 03:02:45;;;;;;;23.60;10.67;;;;;;;;;;5074036;28;20437;-65
2020/12/04 03:05:12;;;;;;;18.83;10.13;;;;;;;;;;5076158;28;20750;-66
2020/12/04 03:07:38;;;;;;;18.43;7.60;;;;;;;;;;5076850;28;20445;-65
2020/12/04 03:10:07;;;;;;;22.20;11.20;;;;;;;;;;5075957;28;20416;-65
2020/12/04 03:12:34;;;;;;;18.87;9.20;;;;;;;;;;5076860;28;20417;-65
2020/12/04 03:15:03;;;;;;;20.73;10.60;;;;;;;;;;5076020;28;20421;-65
2020/12/04 03:17:29;;;;;;;19.97;8.50;;;;;;;;;;5076884;28;20958;-65
2020/12/04 03:19:56;;;;;;;15.93;8.70;;;;;;;;;;5075190;28;20459;-65
2020/12/04 03:22:22;;;;;;;12.87;8.27;;;;;;;;;;5075043;28;20489;-65
2020/12/04 03:24:48;;;;;;;22.07;9.50;;;;;;;;;;5075525;28;20945;-65
2020/12/04 03:27:14;;;;;;;22.67;11.77;;;;;;;;;;5074746;28;20485;-65
2020/12/04 03:29:40;;;;;;;19.53;9.23;;;;;;;;;;5076044;28;21047;-66
2020/12/04 03:32:07;;;;;;;12.73;7.87;;;;;;;;;;5076711;28;20468;-65
2020/12/04 03:34:33;;;;;;;27.37;8.93;;;;;;;;;;5076438;28;20433;-66
2020/12/04 03:36:59;;;;;;;20.57;9.27;;;;;;;;;;5076858;28;20897;-65
2020/12/04 03:39:26;;;;;;;25.73;10.57;;;;;;;;;;5076366;28;20428;-66
2020/12/04 03:41:52;;;;;;;19.97;10.80;;;;;;;;;;5076522;28;20401;-66
2020/12/04 03:44:18;;;;;;;20.83;10.40;;;;;;;;;;5075675;28;20798;-66
2020/12/04 03:46:53;;;;;;;13.23;8.37;;;;;;;;;;5076870;28;20500;-66
2020/12/04 03:49:19;;;;;;;18.43;9.10;;;;;;;;;;5076370;28;20416;-66
2020/12/04 03:51:45;;;;;;;19.90;9.93;;;;;;;;;;5076359;28;20401;-65
2020/12/04 03:54:11;;;;;;;15.07;8.93;;;;;;;;;;5071669;28;20421;-66
2020/12/04 03:56:37;;;;;;;23.03;10.40;;;;;;;;;;5075706;28;20448;-66
2020/12/04 03:59:03;;;;;;;20.43;9.40;;;;;;;;;;5076889;28;20920;-66
2020/12/04 04:01:30;;;;;;;19.83;9.47;;;;;;;;;;5076854;28;20515;-66
2020/12/04 04:03:56;;;;;;;17.93;8.93;;;;;;;;;;5076322;28;20445;-65
2020/12/04 04:06:22;;;;;;;22.77;8.67;;;;;;;;;;5075575;28;20478;-65
2020/12/04 04:08:48;;;;;;;18.47;8.67;;;;;;;;;;5076613;28;20412;-66
2020/12/04 04:11:14;;;;;;;20.37;8.37;;;;;;;;;;5074968;28;20994;-66
2020/12/04 04:13:40;;;;;;;22.00;10.10;;;;;;;;;;5076442;28;20420;-66
2020/12/04 04:16:06;;;;;;;26.80;10.30;;;;;;;;;;5076022;28;20510;-66
2020/12/04 04:18:37;;;;;;;18.47;9.37;;;;;;;;;;5076281;28;20428;-66
2020/12/04 04:21:08;;;;;;;16.13;8.73;;;;;;;;;;5075943;28;20423;-65
2020/12/04 04:23:34;;;;;;;19.13;10.10;;;;;;;;;;5075303;28;20925;-65
2020/12/04 04:26:00;;;;;;;19.97;9.40;;;;;;;;;;5075940;28;20755;-65
2020/12/04 04:28:26;;;;;;;18.27;10.33;;;;;;;;;;5075173;28;20432;-65
2020/12/04 04:30:52;;;;;;;22.20;10.63;;;;;;;;;;5075961;28;20764;-65
2020/12/04 04:33:18;;;;;;;18.53;8.50;;;;;;;;;;5074796;28;20453;-65
2020/12/04 04:35:44;;;;;;;17.27;9.00;;;;;;;;;;5076030;28;20908;-65
2020/12/04 04:38:10;;;;;;;17.70;9.63;;;;;;;;;;5075219;28;20444;-65
2020/12/04 04:40:37;;;;;;;16.73;8.20;;;;;;;;;;5075868;28;20893;-66
2020/12/04 04:43:16;;;;;;;15.73;8.07;;;;;;;;;;5074633;28;20460;-66
2020/12/04 04:45:42;;;;;;;17.03;9.00;;;;;;;;;;5076407;28;20404;-66
2020/12/04 04:48:12;;;;;;;18.20;9.60;;;;;;;;;;5075450;28;20460;-65
2020/12/04 04:50:41;;;;;;;15.63;7.80;;;;;;;;;;5075690;28;20445;-65
2020/12/04 04:53:07;;;;;;;15.30;7.20;;;;;;;;;;5073251;28;20484;-65
2020/12/04 04:55:33;;;;;;;18.13;8.20;;;;;;;;;;5073184;28;20439;-66
2020/12/04 04:58:00;;;;;;;17.60;8.13;;;;;;;;;;5072815;28;20515;-66
2020/12/04 05:00:26;;;;;;;14.17;8.83;;;;;;;;;;5074660;28;20551;-66
2020/12/04 05:02:52;;;;;;;19.23;8.80;;;;;;;;;;5087925;28;20822;-66
2020/12/04 05:05:18;;;;;;;18.30;10.33;;;;;;;;;;5095726;28;20488;-65
2020/12/04 05:07:44;;;;;;;12.47;7.90;;;;;;;;;;5072298;28;20421;-66
2020/12/04 05:10:14;;;;;;;14.90;8.20;;;;;;;;;;5075959;28;20451;-65
2020/12/04 05:12:41;;;;;;;14.10;7.40;;;;;;;;;;5075546;28;20507;-66
2020/12/04 05:15:26;;;;;;;20.77;8.67;;;;;;;;;;5075639;28;20405;-65
2020/12/04 05:18:02;;;;;;;16.37;8.57;;;;;;;;;;5074537;28;20473;-65
2020/12/04 05:20:29;;;;;;;12.50;7.27;;;;;;;;;;5075538;28;20439;-66
2020/12/04 05:22:55;;;;;;;14.60;7.50;;;;;;;;;;5075186;28;20487;-65
2020/12/04 05:25:22;;;;;;;14.53;8.13;;;;;;;;;;5075752;28;20409;-66
2020/12/04 05:27:48;;;;;;;12.03;7.50;;;;;;;;;;5074347;28;20455;-66
2020/12/04 05:30:24;;;;;;;14.90;8.90;;;;;;;;;;5075389;28;20484;-66
2020/12/04 05:33:03;;;;;;;19.90;8.77;;;;;;;;;;5074364;28;20447;-66
2020/12/04 05:35:30;;;;;;;13.97;8.20;;;;;;;;;;5075478;28;20480;-65
2020/12/04 05:38:13;;;;;;;18.73;9.17;;;;;;;;;;5074532;28;20417;-66
2020/12/04 05:40:40;;;;;;;15.33;9.00;;;;;;;;;;5075852;28;20412;-66
2020/12/04 05:43:06;;;;;;;18.97;7.27;;;;;;;;;;5073728;28;20441;-66
2020/12/04 05:45:33;;;;;;;19.67;9.07;;;;;;;;;;5079556;28;20424;-65
2020/12/04 05:47:59;;;;;;;17.80;8.33;;;;;;;;;;5077394;28;20972;-66
2020/12/04 05:50:25;;;;;;;14.50;7.87;;;;;;;;;;5079493;28;20436;-66
2020/12/04 05:52:51;;;;;;;13.07;7.77;;;;;;;;;;5078849;28;20432;-67
2020/12/04 05:55:17;;;;;;;21.27;8.97;;;;;;;;;;5079226;28;20405;-66
2020/12/04 05:57:47;;;;;;;18.87;7.37;;;;;;;;;;5078316;28;21081;-65
2020/12/04 06:00:14;;;;;;;19.50;9.67;;;;;;;;;;5077257;28;20433;-66
2020/12/04 06:02:40;;;;;;;12.93;7.37;;;;;;;;;;5076588;28;20455;-66
2020/12/04 06:05:10;;;;;;;18.20;8.37;;;;;;;;;;5078680;28;20405;-65
2020/12/04 06:07:36;;;;;;;11.47;8.40;;;;;;;;;;5078046;28;20535;-66
2020/12/04 06:10:02;;;;;;;16.20;7.57;;;;;;;;;;5078740;28;20872;-65
2020/12/04 06:12:28;;;;;;;12.27;5.97;;;;;;;;;;5078740;28;20461;-66
2020/12/04 06:14:54;;;;;;;16.47;8.50;;;;;;;;;;5077019;28;20417;-66
2020/12/04 06:17:21;;;;;;;18.87;8.17;;;;;;;;;;5077861;28;20413;-66
2020/12/04 06:19:47;;;;;;;17.87;8.20;;;;;;;;;;5077511;28;20831;-65
2020/12/04 06:22:14;;;;;;;14.90;7.70;;;;;;;;;;5078115;28;20489;-66
2020/12/04 06:24:55;;;;;;;13.07;7.77;;;;;;;;;;5076642;28;20453;-66
2020/12/04 06:27:33;;;;;;;12.93;8.47;;;;;;;;;;5078075;28;20413;-65
2020/12/04 06:29:59;;;;;;;19.27;8.40;;;;;;;;;;5077458;28;20424;-66
2020/12/04 06:32:38;;;;;;;19.40;10.50;;;;;;;;;;5078035;28;20970;-65
2020/12/04 06:35:06;;;;;;;20.57;9.77;;;;;;;;;;5077574;28;20424;-65
2020/12/04 06:37:36;;;;;;;12.73;8.27;;;;;;;;;;5078068;28;20752;-66
2020/12/04 06:40:21;;;;;;;19.90;8.30;;;;;;;;;;5077505;28;20421;-66
2020/12/04 06:42:47;;;;;;;17.73;7.20;;;;;;;;;;5077053;28;20420;-66
2020/12/04 06:45:13;;;;;;;12.30;6.70;;;;;;;;;;5078157;28;20402;-65
2020/12/04 06:47:39;;;;;;;14.43;7.70;;;;;;;;;;5077141;28;20421;-67
2020/12/04 06:50:05;;;;;;;15.73;8.03;;;;;;;;;;5076166;28;20920;-66
2020/12/04 06:52:31;;;;;;;11.10;5.57;;;;;;;;;;5077563;28;20455;-65
2020/12/04 06:54:57;;;;;;;14.23;8.20;;;;;;;;;;5076803;28;20434;-66
2020/12/04 06:57:23;;;;;;;19.83;9.20;;;;;;;;;;5077262;28;20891;-65
2020/12/04 06:59:50;;;;;;;15.20;8.13;;;;;;;;;;5076804;28;20436;-65
2020/12/04 07:02:16;;;;;;;14.93;8.20;;;;;;;;;;5072160;28;20455;-66
2020/12/04 07:04:46;;;;;;;19.60;9.07;;;;;;;;;;5076174;28;20463;-65
2020/12/04 07:07:19;;;;;;;17.67;7.63;;;;;;;;;;5077468;28;20443;-66
2020/12/04 07:09:55;;;;;;;17.40;8.60;;;;;;;;;;5076976;28;20412;-66
2020/12/04 07:12:22;;;;;;;17.17;8.37;;;;;;;;;;5076390;28;20413;-65
2020/12/04 07:14:49;;;;;;;14.50;7.63;;;;;;;;;;5075578;28;20520;-66
2020/12/04 07:17:16;;;;;;;12.50;7.73;;;;;;;;;;5076624;28;20405;-65
2020/12/04 07:19:44;;;;;;;14.87;7.50;;;;;;;;;;5075652;28;20479;-66
2020/12/04 07:22:10;;;;;;;13.33;6.50;;;;;;;;;;5075579;28;20520;-65
2020/12/04 07:24:36;;;;;;;12.93;7.77;;;;;;;;;;5074319;28;20455;-66
2020/12/04 07:27:02;;;;;;;15.63;7.17;;;;;;;;;;5076383;28;20412;-65
2020/12/04 07:29:28;;;;;;;17.70;9.10;;;;;;;;;;5076086;28;20512;-66
2020/12/04 07:31:55;;;;;;;15.53;7.27;;;;;;;;;;5075928;28;20412;-65
2020/12/04 07:34:24;;;;;;;12.23;7.10;;;;;;;;;;5075423;28;20433;-66
2020/12/04 07:36:52;;;;;;;17.60;7.70;;;;;;;;;;5075767;28;20767;-66
2020/12/04 07:39:22;;;;;;;11.77;6.43;;;;;;;;;;5074695;28;20420;-66
2020/12/04 07:41:48;;;;;;;14.90;7.97;;;;;;;;;;5075046;28;20411;-66
2020/12/04 07:44:14;;;;;;;15.60;7.60;;;;;;;;;;5074011;28;20457;-65
2020/12/04 07:46:40;;;;;;;10.77;7.53;;;;;;;;;;5075549;28;20412;-66
2020/12/04 07:49:10;;;;;;;14.63;8.40;;;;;;;;;;5073424;28;20421;-66
2020/12/04 07:51:37;;;;;;;18.43;9.13;;;;;;;;;;5075531;28;20919;-66
2020/12/04 07:54:06;;;;;;;13.47;6.63;;;;;;;;;;5068053;28;20448;-66
2020/12/04 07:56:33;;;;;;;16.73;7.37;;;;;;;;;;5060708;28;20440;-67
2020/12/04 07:59:04;;;;;;;15.47;7.40;;;;;;;;;;5063466;28;20421;-66
2020/12/04 08:01:30;;;;;;;12.73;7.83;;;;;;;;;;5068553;28;20428;-66
2020/12/04 08:03:57;;;;;;;15.53;7.23;;;;;;;;;;5068921;28;20510;-66
2020/12/04 08:06:23;;;;;;;14.90;7.13;;;;;;;;;;5068716;28;20449;-67
2020/12/04 08:09:05;;;;;;;11.60;7.47;;;;;;;;;;5060385;28;20420;-66
2020/12/04 08:11:31;;;;;;;12.27;7.70;;;;;;;;;;5069348;28;20412;-66
2020/12/04 08:13:59;;;;;;;10.50;7.20;;;;;;;;;;5071056;28;20452;-66
2020/12/04 08:16:25;;;;;;;10.50;7.20;;;;;;;;;;5064161;28;20418;-66
2020/12/04 08:18:51;;;;;;;14.30;8.17;;;;;;;;;;5070688;28;20424;-66
2020/12/04 08:21:17;;;;;;;14.20;7.60;;;;;;;;;;5070085;28;20417;-66
2020/12/04 08:23:53;;;;;;;11.00;7.70;;;;;;;;;;5071286;28;20465;-66
2020/12/04 08:26:19;;;;;;;16.13;7.83;;;;;;;;;;5082657;28;20890;-66
2020/12/04 08:28:56;;;;;;;11.90;7.73;;;;;;;;;;5066529;28;20436;-65
2020/12/04 08:31:25;;;;;;;14.50;6.57;;;;;;;;;;5062094;28;20468;-69
2020/12/04 08:33:52;;;;;;;11.40;6.97;;;;;;;;;;5062062;28;20448;-68
2020/12/04 08:36:19;;;;;;;12.80;7.90;;;;;;;;;;5067137;28;20902;-66
2020/12/04 08:38:54;;;;;;;12.97;7.67;;;;;;;;;;5062318;28;20425;-69
2020/12/04 08:41:20;;;;;;;11.07;7.37;;;;;;;;;;5072577;28;20450;-68
2020/12/04 08:43:49;;;;;;;13.10;7.45;;;;;;;;;;5068311;28;20382;-68
2020/12/04 08:46:16;;;;;;;13.30;7.95;;;;;;;;;;5066555;28;20434;-71
2020/12/04 08:48:42;;;;;;;16.60;8.50;;;;;;;;;;5067497;28;21044;-68
2020/12/04 08:51:08;;;;;;;11.73;6.80;;;;;;;;;;5068012;28;20405;-69
2020/12/04 08:53:35;;;;;;;11.87;6.50;;;;;;;;;;5068294;28;20544;-72
2020/12/04 08:56:03;;;;;;;12.50;6.23;;;;;;;;;;5065303;28;20463;-66
2020/12/04 08:58:29;;;;;;;15.07;6.85;;;;;;;;;;5063471;28;20522;-68
2020/12/04 09:00:56;;;;;;;13.97;7.37;;;;;;;;;;5066315;28;20190;-67
2020/12/04 09:03:23;;;;;;;12.97;5.97;;;;;;;;;;5061130;28;20496;-67
2020/12/04 09:05:49;;;;;;;9.57;6.63;;;;;;;;;;5062074;28;20512;-69
2020/12/04 09:08:15;;;;;;;11.93;6.70;;;;;;;;;;5063562;28;20451;-66
2020/12/04 09:10:42;;;;;;;9.30;6.53;;;;;;;;;;5065780;28;20657;-65
2020/12/04 09:13:09;;;;;;;11.37;6.83;;;;;;;;;;5062430;28;22053;-67
2020/12/04 09:15:35;;;;;;;12.77;7.57;;;;;;;;;;5058779;28;20434;-67
2020/12/04 09:18:02;;;;;;;13.87;6.10;;;;;;;;;;5053492;28;20427;-68
2020/12/04 09:20:30;;;;;;;12.97;6.27;;;;;;;;;;5063478;28;20438;-66
2020/12/04 09:22:56;;;;;;;10.30;6.20;;;;;;;;;;5070948;28;20441;-66
2020/12/04 09:25:23;;;;;;;9.43;5.33;;;;;;;;;;5069805;28;20917;-66
2020/12/04 09:27:49;;;;;;;10.10;5.80;;;;;;;;;;5065803;28;20488;-69
2020/12/04 09:30:16;;;;;;;11.02;5.97;;;;;;;;;;5067118;28;20770;-68
2020/12/04 09:32:43;;;;;;;8.57;4.93;;;;;;;;;;5056260;28;20277;-68
2020/12/04 09:35:09;;;;;;;19.73;6.60;;;;;;;;;;5071294;28;20416;-68
2020/12/04 09:37:35;;;;;;;9.47;6.70;;;;;;;;;;5072914;28;20413;-68
2020/12/04 09:40:06;;;;;;;11.00;6.50;;;;;;;;;;5064875;28;20436;-69
2020/12/04 09:42:32;;;;;;;13.75;7.93;;;;;;;;;;5060083;28;20977;-69
2020/12/04 09:44:58;;;;;;;19.73;8.80;;;;;;;;;;5065038;28;20206;-67
2020/12/04 09:47:25;;;;;;;15.50;7.23;;;;;;;;;;5065362;28;20421;-67
2020/12/04 09:49:52;;;;;;;13.97;9.17;;;;;;;;;;5061249;28;20905;-65
2020/12/04 09:52:19;;;;;;;15.03;8.33;;;;;;;;;;5071335;28;21015;-65
2020/12/04 09:54:46;;;;;;;22.23;10.20;;;;;;;;;;5062475;28;20420;-65
2020/12/04 09:57:13;;;;;;;18.60;9.83;;;;;;;;;;5071709;28;20436;-65
2020/12/04 09:59:39;;;;;;;23.60;8.83;;;;;;;;;;5066235;28;20555;-65
2020/12/04 10:02:06;;;;;;;13.97;8.93;;;;;;;;;;5068287;28;20445;-65
2020/12/04 10:04:34;;;;;;;17.47;9.00;;;;;;;;;;5066231;28;20514;-65
2020/12/04 10:07:00;;;;;;;17.00;8.90;;;;;;;;;;5062385;28;20467;-65
2020/12/04 10:09:27;;;;;;;12.10;7.30;;;;;;;;;;5068638;28;20440;-65
2020/12/04 10:11:53;;;;;;;13.70;9.13;;;;;;;;;;5066631;28;20421;-63
2020/12/04 10:14:19;;;;;;;14.70;8.20;;;;;;;;;;5060898;28;20420;-65
2020/12/04 10:16:46;;;;;;;17.10;7.17;;;;;;;;;;5064076;28;20428;-65
2020/12/04 10:19:13;;;;;;;13.83;7.33;;;;;;;;;;5073737;28;20941;-65
2020/12/04 10:21:39;;;;;;;14.27;7.60;;;;;;;;;;5071407;28;20439;-65
2020/12/04 10:24:06;;;;;;;14.83;6.20;;;;;;;;;;5065871;28;21030;-65
2020/12/04 10:26:32;;;;;;;10.27;5.67;;;;;;;;;;5062437;28;20514;-65
2020/12/04 10:29:00;;;;;;;9.77;6.10;;;;;;;;;;5072443;28;20417;-65
2020/12/04 10:31:26;;;;;;;11.93;6.40;;;;;;;;;;5073447;28;20778;-65
2020/12/04 10:33:52;;;;;;;13.00;7.70;;;;;;;;;;5075289;28;20463;-65
2020/12/04 10:36:18;;;;;;;14.87;7.43;;;;;;;;;;5065874;28;20428;-65
2020/12/04 10:38:44;;;;;;;11.67;7.23;;;;;;;;;;5056821;28;20907;-65
2020/12/04 10:41:10;;;;;;;20.73;7.70;;;;;;;;;;5071150;28;20420;-65
2020/12/04 10:43:36;;;;;;;10.70;7.07;;;;;;;;;;5073451;28;20548;-65
2020/12/04 10:46:03;;;;;;;12.33;6.53;;;;;;;;;;5065323;28;20511;-65
2020/12/04 10:48:29;;;;;;;12.60;6.80;;;;;;;;;;5071805;28;20424;-65
2020/12/04 10:50:55;;;;;;;14.17;7.77;;;;;;;;;;5074251;28;20413;-65
2020/12/04 10:53:24;;;;;;;15.50;6.97;;;;;;;;;;5070677;28;20476;-65
2020/12/04 10:55:50;;;;;;;13.90;6.90;;;;;;;;;;5074630;28;20397;-65
2020/12/04 10:58:16;;;;;;;19.83;7.37;;;;;;;;;;5075689;28;20498;-66
2020/12/04 11:00:47;;;;;;;10.87;6.27;;;;;;;;;;5072350;28;21107;-65
2020/12/04 11:03:41;;;;;;;12.40;6.30;;;;;;;;;;5071004;28;20564;-65
2020/12/04 11:06:07;;;;;;;11.63;6.90;;;;;;;;;;5074203;28;20425;-65
2020/12/04 11:08:33;;;;;;;13.67;7.27;;;;;;;;;;5069210;28;20447;-65
2020/12/04 11:10:59;;;;;;;13.27;8.77;;;;;;;;;;5067466;28;20409;-65
2020/12/04 11:13:25;;;;;;;14.27;7.60;;;;;;;;;;5071961;28;20449;-65
2020/12/04 11:15:51;;;;;;;15.53;8.43;;;;;;;;;;5068294;28;20772;-65
2020/12/04 11:18:17;;;;;;;12.30;7.30;;;;;;;;;;5073274;28;20459;-65
2020/12/04 11:20:43;;;;;;;13.73;7.57;;;;;;;;;;5064723;28;20424;-65
2020/12/04 11:23:09;;;;;;;17.17;7.30;;;;;;;;;;5070621;28;20472;-65
2020/12/04 11:25:35;;;;;;;11.40;6.77;;;;;;;;;;5068317;28;20420;-65
2020/12/04 11:28:01;;;;;;;10.97;7.17;;;;;;;;;;5076210;28;20421;-67
2020/12/04 11:30:27;;;;;;;18.10;9.57;;;;;;;;;;5068977;28;20417;-67
2020/12/04 11:32:53;;;;;;;18.90;7.47;;;;;;;;;;5076079;28;20563;-66
2020/12/04 11:35:20;;;;;;;17.80;6.10;;;;;;;;;;5073980;28;20413;-66
2020/12/04 11:37:47;;;;;;;16.43;6.23;;;;;;;;;;5075278;28;20455;-65
2020/12/04 11:40:13;;;;;;;10.87;6.00;;;;;;;;;;5063980;28;20433;-66
2020/12/04 11:42:41;;;;;;;11.27;6.93;;;;;;;;;;5073234;28;20448;-66
2020/12/04 11:45:07;;;;;;;16.03;6.63;;;;;;;;;;5072037;28;20464;-66
2020/12/04 11:47:37;;;;;;;13.23;6.83;;;;;;;;;;5066797;28;20437;-66
2020/12/04 11:50:03;;;;;;;17.40;7.00;;;;;;;;;;5071676;28;20408;-66
2020/12/04 11:52:29;;;;;;;15.67;7.20;;;;;;;;;;5062885;28;20445;-66
2020/12/04 11:54:56;;;;;;;10.40;6.90;;;;;;;;;;5071952;28;20784;-66
2020/12/04 11:57:22;;;;;;;11.97;6.97;;;;;;;;;;5077800;28;20514;-66
2020/12/04 11:59:49;;;;;;;16.17;7.80;;;;;;;;;;5074021;28;20443;-66
2020/12/04 12:02:15;;;;;;;14.23;6.73;;;;;;;;;;5065205;28;20446;-67
2020/12/04 12:04:41;;;;;;;15.10;8.10;;;;;;;;;;5068930;28;20458;-67
2020/12/04 12:07:07;;;;;;;11.13;6.30;;;;;;;;;;5061833;28;20430;-66
2020/12/04 12:09:33;;;;;;;16.80;7.27;;;;;;;;;;5069518;28;20425;-67
2020/12/04 12:11:59;;;;;;;21.37;7.47;;;;;;;;;;5070723;28;20865;-67
2020/12/04 12:14:25;;;;;;;17.33;7.40;;;;;;;;;;5072739;28;20418;-66
2020/12/04 12:16:51;;;;;;;18.20;8.00;;;;;;;;;;5067173;28;20421;-67
2020/12/04 12:19:17;;;;;;;21.60;8.00;;;;;;;;;;5067280;28;20440;-67
2020/12/04 12:21:47;;;;;;;11.20;6.63;;;;;;;;;;5064416;28;20410;-67
2020/12/04 12:24:13;;;;;;;10.70;7.00;;;;;;;;;;5068631;28;20590;-67
2020/12/04 12:26:39;;;;;;;15.87;7.03;;;;;;;;;;5072309;28;20419;-67
2020/12/04 12:29:06;;;;;;;22.73;7.70;;;;;;;;;;5071818;28;20480;-66
2020/12/04 12:31:32;;;;;;;11.60;6.57;;;;;;;;;;5065185;28;20418;-66
2020/12/04 12:33:58;;;;;;;14.13;7.73;;;;;;;;;;5067411;28;20436;-66
2020/12/04 12:36:24;;;;;;;20.63;8.43;;;;;;;;;;5074554;28;20414;-66
2020/12/04 12:38:52;;;;;;;13.00;7.77;;;;;;;;;;5072687;28;20432;-67
2020/12/04 12:41:19;;;;;;;12.83;7.37;;;;;;;;;;5069718;28;20497;-65
2020/12/04 12:43:44;;;;;;;12.20;6.57;;;;;;;;;;5071590;28;20469;-66
2020/12/04 12:46:10;;;;;;;10.30;6.67;;;;;;;;;;5071686;28;20879;-66
2020/12/04 12:48:36;;;;;;;21.23;9.00;;;;;;;;;;5072139;28;20431;-67
2020/12/04 12:51:03;;;;;;;15.53;8.83;;;;;;;;;;5067021;28;20411;-67
2020/12/04 12:53:29;;;;;;;14.60;7.07;;;;;;;;;;5074106;28;20473;-66
2020/12/04 12:55:55;;;;;;;14.07;7.20;;;;;;;;;;5072668;28;20428;-66
2020/12/04 12:58:21;;;;;;;14.23;6.43;;;;;;;;;;5072397;28;20508;-67
2020/12/04 13:00:47;;;;;;;10.13;6.43;;;;;;;;;;5070912;28;20476;-66
2020/12/04 13:03:13;;;;;;;12.47;6.63;;;;;;;;;;5070222;28;20452;-65
2020/12/04 13:05:39;;;;;;;17.30;7.80;;;;;;;;;;5074398;28;20522;-66
2020/12/04 13:08:06;;;;;;;14.83;7.07;;;;;;;;;;5069892;28;20833;-65
2020/12/04 13:10:32;;;;;;;15.57;7.20;;;;;;;;;;5066017;28;20444;-65
2020/12/04 13:12:58;;;;;;;10.23;5.60;;;;;;;;;;5067426;28;20452;-65
2020/12/04 13:15:25;;;;;;;10.23;6.13;;;;;;;;;;5068787;28;20475;-65
2020/12/04 13:17:52;;;;;;;14.23;8.00;;;;;;;;;;5064952;28;20508;-66
2020/12/04 13:20:19;;;;;;;15.53;6.83;;;;;;;;;;5068184;28;20424;-66
2020/12/04 13:25:30;;;;;;;16.23;6.97;;;;;;;;;;5064447;28;20427;-66
2020/12/04 13:27:56;;;;;;;15.40;5.50;;;;;;;;;;5070027;28;20406;-66
2020/12/04 13:30:22;;;;;;;8.27;5.00;;;;;;;;;;5077614;28;20527;-66
2020/12/04 13:32:48;;;;;;;10.20;5.50;;;;;;;;;;5065237;28;20441;-66
2020/12/04 13:35:14;;;;;;;10.70;5.87;;;;;;;;;;5067567;28;20400;-66
2020/12/04 13:37:40;;;;;;;9.30;5.23;;;;;;;;;;5069157;28;20449;-66
2020/12/04 13:40:07;;;;;;;11.60;4.53;;;;;;;;;;5068631;28;20437;-66
2020/12/04 13:42:33;;;;;;;8.60;5.20;;;;;;;;;;5067447;28;20465;-66
2020/12/04 13:44:59;;;;;;;15.03;4.37;;;;;;;;;;5069888;28;20493;-66
2020/12/04 13:47:25;;;;;;;8.40;4.73;;;;;;;;;;5069925;28;20929;-65
2020/12/04 13:49:51;;;;;;;8.20;4.13;;;;;;;;;;5068902;28;20449;-66
2020/12/04 13:52:18;;;;;;;9.03;4.67;;;;;;;;;;5068341;28;20444;-66
2020/12/04 13:54:44;;;;;;;10.30;4.60;;;;;;;;;;5070236;28;20417;-66
2020/12/04 13:57:10;;;;;;;11.93;5.20;;;;;;;;;;5066927;28;20495;-66
2020/12/04 13:59:36;;;;;;;16.37;5.93;;;;;;;;;;5067414;28;20498;-66
2020/12/04 14:02:02;;;;;;;12.67;5.17;;;;;;;;;;5068102;28;20428;-66
2020/12/04 14:04:28;;;;;;;14.47;5.70;;;;;;;;;;5066799;28;20491;-66
2020/12/04 14:06:54;;;;;;;9.20;5.40;;;;;;;;;;5072429;28;20440;-66
2020/12/04 14:09:20;;;;;;;12.57;6.17;;;;;;;;;;5073051;28;20867;-66
2020/12/04 14:11:47;;;;;;;11.00;5.00;;;;;;;;;;5068685;28;20449;-65
2020/12/04 14:14:13;;;;;;;11.20;5.40;;;;;;;;;;5070875;28;20428;-65
2020/12/04 14:16:39;;;;;;;8.57;4.60;;;;;;;;;;5073312;28;20438;-65
2020/12/04 14:19:05;;;;;;;13.57;5.00;;;;;;;;;;5063276;28;20425;-66
2020/12/04 14:21:31;;;;;;;9.90;4.77;;;;;;;;;;5069372;28;20843;-66
2020/12/04 14:23:57;;;;;;;8.40;3.93;;;;;;;;;;5072304;28;20460;-66
2020/12/04 14:26:23;;;;;;;8.80;4.83;;;;;;;;;;5072533;28;20412;-66
2020/12/04 14:28:50;;;;;;;14.37;5.17;;;;;;;;;;5073021;28;20847;-65
2020/12/04 14:31:16;;;;;;;7.70;5.10;;;;;;;;;;5072853;28;20436;-65